Terminal Aerodrome Forecast
Issued by NWS

Home | Current Version | Previous Version | Text Only | Print | Product List | Glossary On
Versions: 1 2 3 4 5 6 7 8 9 10 11 12 13 14 15 16 17 18 19 20 21 22 23 24 25 26
984
FTUS46 KSGX 241736 AAB
TAFSAN
TAF AMD
KSAN 241736Z 2418/2518 28006KT P6SM VCSH FEW008 SCT025 BKN040
      TEMPO 2418/2419 -SHRA BKN022
     FM241900 27011KT P6SM SCT025
     FM250200 26005KT P6SM BKN025 BKN035
      TEMPO 2512/2516 -SHRA BKN018=

USA.gov is the U.S. government's official web portal to all federal, state and local government web resources and services.